Latest Weather Observations for Mudgee

IDN60801

Issued at 3:02 pm EDT Sunday 11 December 2016 (issued every 30 minutes, with the page automatically refreshed every 10 minutes)

About weather observations | Map of weather stations | Latest weather observations for NSW | Other Formats
Station Details ID: 062101 Name: MUDGEE AIRPORT AWS Lat: -32.56 Lon: 149.61 Height: 471.0 m
Data from the previous 72 hours. | See also: Recent months at Mudgee
Date/Time
EDT
Temp
°C
App
Temp
°C
Dew
Point
°C
Rel
Hum
%
Delta-T
°C
Wind Press
QNH
hPa
Press
MSL
hPa
Rain since
9am
mm
Dir  Spd
km/h
Gust
km/h
Spd
kts
Gust
kts
11/03:00pm 29.0 26.7 11.6 34 10.2 NNW 15 22 8 12 1019.5 1017.4 0.0
11/02:30pm 28.7 26.4 11.7 35 10.0 WNW 15 28 8 15 1019.9 1017.9 0.0
11/02:00pm 27.8 26.3 11.8 37 9.4 N 11 19 6 10 1020.3 1018.3 0.0
11/01:30pm 28.1 26.1 12.8 38 9.2 NW 15 28 8 15 1020.6 1018.6 0.0
11/01:00pm 26.0 23.8 12.1 42 8.1 N 15 20 8 11 1021.0 1019.0 0.0
11/12:30pm 26.3 24.4 13.1 44 7.9 NW 15 24 8 13 1021.4 1019.4 0.0
11/12:00pm 25.2 24.1 13.1 47 7.2 W 11 19 6 10 1021.8 1019.8 0.0
11/11:30am 25.4 24.2 15.1 53 6.3 NW 15 26 8 14 1022.0 1020.0 0.0
11/11:00am 24.0 21.5 13.5 52 6.2 NNW 19 30 10 16 1022.2 1020.2 0.0
11/10:30am 23.0 22.3 13.2 54 5.8 NNW 9 19 5 10 1022.2 1020.2 0.0
11/10:00am 22.4 21.7 13.2 56 5.4 NW 9 17 5 9 1022.3 1020.3 0.0
11/09:30am 21.6 21.1 12.7 57 5.2 ENE 7 15 4 8 1022.6 1020.6 0.0
11/09:00am 20.3 20.9 13.0 63 4.2 SSE 2 11 1 6 1022.8 1020.8 0.0
11/08:30am 19.0 18.9 13.4 70 3.3 NE 6 9 3 5 1022.8 1020.8 0.0
11/08:00am 17.6 16.9 13.1 75 2.6 SSE 9 13 5 7 1022.6 1020.6 0.0
11/07:30am 16.4 14.8 12.9 80 2.0 SSE 13 17 7 9 1022.3 1020.3 0.0
11/07:00am 15.3 15.1 13.0 86 1.3 SSE 6 13 3 7 1022.1 1020.1 0.0
11/06:30am 13.6 12.6 12.3 92 0.7 SSE 9 11 5 6 1021.7 1019.6 0.0
11/06:00am 13.2 12.8 12.3 94 0.5 SE 6 7 3 4 1021.5 1019.5 0.0
11/05:30am 13.6 12.3 12.5 93 0.6 NE 11 17 6 9 1021.2 1019.2 0.0
11/05:00am 13.7 12.9 11.8 88 1.0 E 7 11 4 6 1020.4 1018.4 0.0
11/04:30am 14.2 12.8 12.1 87 1.2 SSE 11 13 6 7 1019.9 1017.9 0.0
11/04:00am 14.2 13.5 11.9 86 1.3 S 7 9 4 5 1019.9 1017.9 0.0
11/03:30am 14.4 14.2 11.9 85 1.4 SE 4 7 2 4 1019.8 1017.7 0.0
11/03:00am 14.9 13.9 12.2 84 1.5 SSE 9 13 5 7 1019.9 1017.9 0.0
11/02:30am 15.2 14.1 12.0 81 1.8 SSE 9 13 5 7 1020.1 1018.1 0.0
11/02:00am 15.2 13.9 11.4 78 2.1 SSE 9 11 5 6 1020.3 1018.3 0.0
11/01:30am 15.5 14.7 11.1 75 2.4 SSE 6 9 3 5 1020.4 1018.4 0.0
11/01:00am 16.2 16.3 10.1 67 3.3 CALM 0 6 0 3 1020.5 1018.5 0.0
11/12:30am 17.3 15.8 12.0 71 3.0 SSE 11 15 6 8 1020.5 1018.5 0.0
11/12:00am 17.9 15.5 11.5 66 3.6 S 15 17 8 9 1020.5 1018.5 0.0
 
Date/Time
EDT
Temp
°C
App
Temp
°C
Dew
Point
°C
Rel
Hum
%
Delta-T
°C
Wind Press
QNH
hPa
Press
MSL
hPa
Rain since
9am
mm
Dir  Spd
km/h
Gust
km/h
Spd
kts
Gust
kts
10/11:30pm 17.5 16.0 8.4 55 4.8 S 6 7 3 4 1020.4 1018.4 0.0
10/11:00pm 17.5 15.3 6.4 48 5.6 W 7 15 4 8 1020.2 1018.2 0.0
10/10:30pm 19.4 14.6 7.2 45 6.3 NE 22 32 12 17 1019.7 1017.6 0.0
10/10:00pm 16.1 14.0 6.5 53 4.8 NE 7 7 4 4 1019.2 1017.2 0.0
10/09:30pm 19.6 17.8 5.3 39 7.2 ESE 4 7 2 4 1019.1 1017.1 0.0
10/09:00pm 21.6 18.4 5.1 34 8.3 SSE 11 15 6 8 1018.9 1016.9 0.0
10/08:30pm 23.2 20.3 4.7 30 9.4 SSE 9 11 5 6 1018.8 1016.8 0.0
10/08:00pm 25.0 22.7 4.7 27 10.4 SSE 6 7 3 4 1018.6 1016.6 0.0
10/07:30pm 26.9 24.7 3.4 22 11.9 SSE 4 7 2 4 1018.3 1016.3 0.0
10/07:00pm 27.6 24.6 1.9 19 12.7 SSW 7 9 4 5 1018.1 1016.1 0.0
10/06:30pm 28.0 24.8 3.0 20 12.7 SW 9 13 5 7 1017.9 1015.8 0.0
10/06:00pm 27.1 23.1 2.9 21 12.2 N 13 19 7 10 1017.7 1015.6 0.0
10/05:30pm 27.5 24.6 4.5 23 11.9 N 9 15 5 8 1017.8 1015.7 0.0
10/05:00pm 27.7 24.7 4.1 22 12.2 NW 9 19 5 10 1018.0 1016.0 0.0
10/04:30pm 27.8 24.1 4.2 22 12.2 WNW 13 24 7 13 1018.4 1016.4 0.0
10/04:00pm 27.6 24.6 4.0 22 12.1 WSW 9 13 5 7 1018.6 1016.6 0.0
10/03:30pm 26.7 23.5 5.1 25 11.3 WNW 11 20 6 11 1019.0 1017.0 0.0
10/03:00pm 26.6 23.9 5.5 26 11.1 NE 9 17 5 9 1019.7 1017.6 0.0
10/02:30pm 26.4 24.0 6.9 29 10.5 SW 9 17 5 9 1020.0 1018.0 0.0
10/02:00pm 25.6 23.0 6.3 29 10.2 W 9 17 5 9 1020.4 1018.4 0.0
10/01:30pm 24.7 22.0 5.5 29 10.0 NNE 9 17 5 9 1020.8 1018.8 0.0
10/01:00pm 24.6 22.7 7.7 34 9.1 ENE 7 20 4 11 1021.2 1019.2 0.0
10/12:30pm 24.2 22.1 8.2 36 8.7 ESE 9 13 5 7 1021.4 1019.4 0.0
10/12:00pm 22.8 20.8 8.5 40 7.7 E 9 17 5 9 1021.9 1019.9 0.0
10/11:30am 21.9 19.2 7.3 39 7.7 N 11 20 6 11 1022.1 1020.1 0.0
10/11:00am 21.3 18.3 7.9 42 7.1 ENE 13 22 7 12 1022.3 1020.3 0.0
10/10:30am 20.9 18.0 8.2 44 6.8 ENE 13 20 7 11 1022.3 1020.3 0.0
10/10:00am 20.5 18.3 9.4 49 6.0 NE 11 19 6 10 1022.4 1020.4 0.0
10/09:30am 19.1 16.2 9.6 54 5.2 ENE 15 22 8 12 1022.5 1020.5 0.0
10/09:00am 18.8 17.3 10.6 59 4.5 E 9 15 5 8 1022.5 1020.5 0.0
10/08:30am 16.9 14.6 10.5 66 3.5 SSE 13 19 7 10 1022.4 1020.4 0.0
10/08:00am 14.2 12.3 9.2 72 2.6 SSE 9 13 5 7 1022.3 1020.3 0.0
10/07:30am 11.9 10.3 8.0 77 2.0 S 6 11 3 6 1022.2 1020.2 0.0
10/07:00am 9.0 8.0 5.6 79 1.6 CALM 0 0 0 0 1022.0 1020.0 0.0
10/06:30am 6.2 3.9 5.0 92 0.5 NNE 6 7 3 4 1021.7 1019.6 0.0
10/06:00am 5.1 2.9 3.4 89 0.7 N 4 9 2 5 1021.2 1019.2 0.0
10/05:30am 6.0 4.7 4.0 87 0.9 CALM 0 0 0 0 1020.8 1018.8 0.0
10/05:00am 5.3 3.1 3.5 88 0.8 SE 4 6 2 3 1020.4 1018.4 0.0
10/04:30am 5.5 2.8 2.8 83 1.1 NE 6 11 3 6 1020.2 1018.2 0.0
10/04:00am 7.0 5.6 3.6 79 1.5 CALM 0 0 0 0 1020.0 1018.0 0.0
10/03:30am 7.0 5.6 3.8 80 1.4 CALM 0 0 0 0 1019.8 1017.7 0.0
10/03:00am 7.3 4.6 3.9 79 1.5 NNE 7 11 4 6 1019.6 1017.5 0.0
10/02:30am 6.0 4.2 3.2 82 1.2 NE 2 7 1 4 1019.4 1017.3 0.0
10/02:00am 7.2 5.8 3.4 77 1.7 CALM 0 0 0 0 1019.2 1017.2 0.0
10/01:30am 7.8 6.2 4.4 79 1.5 NE 2 9 1 5 1019.4 1017.3 0.0
10/01:00am 7.4 4.8 4.0 79 1.5 ENE 7 19 4 10 1019.5 1017.4 0.0
10/12:30am 9.0 7.1 4.9 75 1.9 ENE 4 9 2 5 1019.7 1017.5 0.0
10/12:00am 9.3 8.0 4.3 71 2.3 CALM 0 0 0 0 1019.6 1017.5 0.0
 
Date/Time
EDT
Temp
°C
App
Temp
°C
Dew
Point
°C
Rel
Hum
%
Delta-T
°C
Wind Press
QNH
hPa
Press
MSL
hPa
Rain since
9am
mm
Dir  Spd
km/h
Gust
km/h
Spd
kts
Gust
kts
09/11:30pm 10.7 8.3 4.2 64 3.0 SE 6 9 3 5 1019.5 1017.4 0.0
09/11:00pm 10.0 8.5 4.8 70 2.4 E 2 9 1 5 1019.2 1017.2 0.0
09/10:30pm 10.5 7.9 4.2 65 2.9 NE 7 11 4 6 1018.8 1016.8 0.0
09/10:00pm 12.1 9.1 4.1 58 3.7 NNE 9 11 5 6 1018.7 1016.7 0.0
09/09:30pm 14.6 12.9 4.0 49 5.0 ENE 2 7 1 4 1018.2 1016.2 0.0
09/09:00pm 15.4 14.1 3.9 46 5.4 CALM 0 0 0 0 1017.8 1015.7 0.0
09/08:30pm 16.1 12.9 3.2 42 6.0 WSW 9 11 5 6 1017.4 1015.3 0.0
09/08:00pm 18.0 13.5 2.3 35 7.3 SW 15 19 8 10 1016.8 1014.8 0.0
09/07:30pm 20.0 15.1 1.9 30 8.5 SSW 17 24 9 13 1016.3 1014.3 0.0
09/07:00pm 20.7 15.2 2.0 29 8.9 WSW 20 28 11 15 1015.8 1013.7 0.0
09/06:30pm 21.0 14.8 2.3 29 8.9 SSW 24 33 13 18 1015.3 1013.2 0.0
09/06:00pm 21.6 15.9 2.8 29 9.1 WSW 22 30 12 16 1014.5 1012.5 0.0
09/05:30pm 22.1 16.4 2.8 28 9.4 SW 22 32 12 17 1014.3 1012.3 0.0
09/05:00pm 21.9 15.1 3.1 29 9.2 WSW 28 39 15 21 1014.2 1012.2 0.0
09/04:30pm 21.5 14.6 2.7 29 9.1 WSW 28 43 15 23 1014.2 1012.2 0.0
09/04:00pm 21.2 14.3 2.5 29 9.0 SW 28 39 15 21 1014.2 1012.2 0.0
09/03:30pm 21.2 14.4 3.0 30 8.8 WSW 28 39 15 21 1014.4 1012.4 0.0
09/03:00pm 20.9 13.7 3.2 31 8.6 WSW 30 41 16 22 1014.6 1012.6 0.0
09/02:30pm 20.2 14.8 2.5 31 8.4 SW 20 33 11 18 1014.6 1012.6 0.0
09/02:00pm 20.0 13.4 4.1 35 7.8 WSW 28 41 15 22 1014.9 1012.8 0.0
09/01:30pm 19.4 12.6 3.2 34 7.8 SW 28 44 15 24 1014.9 1012.8 0.0
09/01:00pm 18.6 11.8 3.3 36 7.3 W 28 43 15 23 1014.9 1012.8 0.0
09/12:30pm 19.0 11.6 4.0 37 7.3 WSW 32 44 17 24 1014.9 1012.8 0.0
09/12:09pm 18.8 12.1 3.4 36 7.4 SW 28 46 15 25 1014.9 1012.8 0.0
09/12:00pm 19.0 11.6 4.0 37 7.3 WSW 32 46 17 25 1014.9 1012.8 0.0
09/11:30am 17.6 10.1 4.2 41 6.5 WSW 33 43 18 23 1014.7 1012.7 0.0
09/11:00am 18.5 11.4 5.4 42 6.5 SW 32 46 17 25 1014.3 1012.3 0.0
09/10:30am 16.7 9.2 3.4 41 6.3 WSW 32 46 17 25 1014.0 1011.9 0.0
09/10:00am 16.8 9.0 4.8 45 5.8 WSW 35 48 19 26 1013.6 1011.5 0.0
09/09:30am 16.3 10.0 5.9 50 5.2 SW 28 37 15 20 1013.4 1011.3 0.0
09/09:00am 15.2 9.3 5.7 53 4.7 WSW 26 35 14 19 1013.2 1011.1 0.4
09/08:30am 14.9 9.4 6.0 55 4.4 WSW 24 33 13 18 1013.0 1010.9 0.4
09/08:00am 14.2 8.9 6.6 60 3.8 WSW 24 33 13 18 1012.3 1010.3 0.4
09/07:30am 13.7 8.7 6.3 61 3.6 WSW 22 32 12 17 1012.2 1010.1 0.4
09/07:00am 13.4 9.0 6.5 63 3.4 WSW 19 26 10 14 1011.8 1009.7 0.4
09/06:30am 13.0 8.5 6.8 66 3.1 WSW 20 32 11 17 1011.3 1009.2 0.4
09/06:00am 13.0 8.6 7.5 69 2.8 WSW 20 32 11 17 1010.8 1008.7 0.4
09/05:30am 13.2 8.5 7.9 70 2.7 WSW 22 28 12 15 1010.1 1008.0 0.4
09/05:00am 13.2 8.6 8.1 71 2.6 WSW 22 33 12 18 1009.7 1007.6 0.4
09/04:30am 13.6 9.1 8.4 71 2.7 WSW 22 32 12 17 1009.2 1007.1 0.4
09/04:00am 14.1 8.9 8.9 71 2.7 WSW 26 35 14 19 1008.9 1006.8 0.4
09/03:30am 14.5 8.0 9.1 70 2.8 WSW 33 44 18 24 1008.6 1006.5 0.4
09/03:00am 14.7 9.4 8.4 66 3.3 WSW 26 33 14 18 1008.3 1006.1 0.4
09/02:30am 15.5 9.8 8.3 62 3.7 WSW 28 37 15 20 1008.2 1006.0 0.4
09/02:00am 16.3 9.5 7.0 54 4.7 WSW 32 43 17 23 1007.8 1005.7 0.4
09/01:30am 16.9 11.5 6.4 50 5.3 SW 24 39 13 21 1007.7 1005.6 0.4
09/01:00am 17.5 12.7 7.3 51 5.3 SW 22 37 12 20 1007.3 1005.2 0.4
09/12:30am 17.6 14.2 11.2 66 3.5 SW 20 30 11 16 1006.7 1004.6 0.4
09/12:00am 17.8 15.7 12.5 71 3.0 SW 15 22 8 12 1006.1 1003.9 0.4
 
Date/Time
EDT
Temp
°C
App
Temp
°C
Dew
Point
°C
Rel
Hum
%
Delta-T
°C
Wind Press
QNH
hPa
Press
MSL
hPa
Rain since
9am
mm
Dir  Spd
km/h
Gust
km/h
Spd
kts
Gust
kts
08/11:57pm 17.6 15.2 12.7 73 2.8 SW 17 30 9 16 1006.1 1003.9 0.4
08/11:43pm 18.0 14.4 14.3 79 2.2 WSW 26 37 14 20 1006.0 1003.8 0.4
08/11:30pm 18.6 14.3 14.5 77 2.4 W 30 41 16 22 1005.7 1003.6 0.4
08/11:27pm 18.7 14.5 14.6 77 2.4 W 30 41 16 22 1005.6 1003.5 0.4
08/11:16pm 19.6 16.1 15.5 77 2.5 W 28 44 15 24 1005.4 1003.3 0.4
08/11:00pm 19.9 16.8 15.7 77 2.6 WSW 26 37 14 20 1005.2 1003.1 0.4
08/10:30pm 20.2 19.6 15.6 75 2.8 W 13 20 7 11 1004.8 1002.7 0.4
08/10:00pm 20.4 18.8 16.0 76 2.7 SW 19 37 10 20 1004.6 1002.4 0.2
08/09:30pm 21.9 18.4 15.5 67 3.9 WSW 28 41 15 22 1005.7 1003.6 0.2
08/09:00pm 21.9 16.6 16.2 70 3.5 WSW 39 57 21 31 1006.1 1003.9 0.2
08/08:30pm 22.2 17.9 15.3 65 4.2 W 32 50 17 27 1004.4 1002.2 0.0
08/08:28pm 23.1 19.4 14.9 60 5.0 W 28 50 15 27 1004.3 1002.1 0.0
08/08:27pm 23.9 20.4 14.6 56 5.6 WSW 26 43 14 23 1004.2 1002.0 0.0
08/08:00pm 24.9 21.5 14.7 53 6.2 WSW 26 37 14 20 1002.1 999.9 0.0
08/07:43pm 25.2 18.4 14.3 50 6.6 W 43 65 23 35 1001.1 999.0 0.0
08/07:33pm 30.2 26.8 11.2 31 11.2 WNW 20 59 11 32 1000.8 998.6 0.0
08/07:30pm 30.6 27.8 11.5 30 11.3 WNW 17 24 9 13 1000.5 998.3 0.0
08/07:00pm 31.7 26.2 10.4 27 12.5 NW 30 43 16 23 1000.3 998.1 0.0
08/06:30pm 32.5 28.2 12.2 29 12.2 WNW 26 33 14 18 1000.7 998.5 0.0
08/06:00pm 32.6 26.7 11.2 27 12.8 WNW 33 48 18 26 1000.6 998.4 0.0
08/05:30pm 32.1 26.4 11.3 28 12.4 WNW 32 41 17 22 1000.6 998.4 0.0
08/05:00pm 33.6 28.0 12.0 27 13.1 WNW 33 44 18 24 1000.8 998.6 0.0
08/04:43pm 33.7 28.5 12.7 28 12.8 WNW 32 52 17 28 1000.7 998.5 0.0
08/04:30pm 33.0 28.3 13.1 30 12.2 WNW 30 43 16 23 1000.9 998.7 0.0
08/04:00pm 33.0 27.3 13.1 30 12.2 WNW 35 46 19 25 1001.5 999.3 0.0
08/03:50pm 33.2 27.4 12.8 29 12.4 WNW 35 54 19 29 1001.7 999.5 0.0
08/03:30pm 32.1 26.1 13.3 31 11.5 NW 37 50 20 27 1002.0 999.8 0.0
08/03:02pm 31.5 26.5 13.3 33 11.1 NW 32 50 17 27 1002.7 1000.5 0.0

Other Formats:

Comma delimited format used in spreadsheet applications
http://www.bom.gov.au/fwo/IDN60801/IDN60801.94727.axf

JavaScript Object Notation format (JSON) in row-major order
http://www.bom.gov.au/fwo/IDN60801/IDN60801.94727.json